sensor_id;sensor_type;location;lat;lon;timestamp;P1;durP1;ratioP1;P2;durP2;ratioP2
32295;SDS011;18781;51.550;5.418;2023-07-31T00:00:05;37.10;;;10.93;;
32295;SDS011;18781;51.550;5.418;2023-07-31T00:02:31;28.05;;;9.30;;
32295;SDS011;18781;51.550;5.418;2023-07-31T00:04:56;30.90;;;10.32;;
32295;SDS011;18781;51.550;5.418;2023-07-31T00:07:22;34.60;;;10.15;;
32295;SDS011;18781;51.550;5.418;2023-07-31T00:09:47;25.98;;;10.02;;
32295;SDS011;18781;51.550;5.418;2023-07-31T00:12:13;37.75;;;10.32;;
32295;SDS011;18781;51.550;5.418;2023-07-31T00:14:39;26.90;;;9.98;;
32295;SDS011;18781;51.550;5.418;2023-07-31T00:17:04;34.03;;;9.18;;
32295;SDS011;18781;51.550;5.418;2023-07-31T00:19:30;33.85;;;9.80;;
32295;SDS011;18781;51.550;5.418;2023-07-31T00:21:55;27.80;;;9.05;;
32295;SDS011;18781;51.550;5.418;2023-07-31T00:24:21;29.65;;;8.63;;
32295;SDS011;18781;51.550;5.418;2023-07-31T00:26:47;33.88;;;9.50;;
32295;SDS011;18781;51.550;5.418;2023-07-31T00:29:12;28.52;;;9.02;;
32295;SDS011;18781;51.550;5.418;2023-07-31T00:31:38;24.73;;;9.15;;
32295;SDS011;18781;51.550;5.418;2023-07-31T00:34:03;27.90;;;9.13;;
32295;SDS011;18781;51.550;5.418;2023-07-31T00:36:29;26.15;;;8.63;;
32295;SDS011;18781;51.550;5.418;2023-07-31T00:38:55;25.90;;;8.57;;
32295;SDS011;18781;51.550;5.418;2023-07-31T00:41:20;30.30;;;8.93;;
32295;SDS011;18781;51.550;5.418;2023-07-31T00:43:46;27.27;;;8.30;;
32295;SDS011;18781;51.550;5.418;2023-07-31T00:46:12;29.70;;;9.00;;
32295;SDS011;18781;51.550;5.418;2023-07-31T00:48:37;31.42;;;8.63;;
32295;SDS011;18781;51.550;5.418;2023-07-31T00:51:04;30.50;;;8.27;;
32295;SDS011;18781;51.550;5.418;2023-07-31T00:53:29;21.38;;;7.93;;
32295;SDS011;18781;51.550;5.418;2023-07-31T00:55:56;27.85;;;8.77;;
32295;SDS011;18781;51.550;5.418;2023-07-31T00:58:22;26.83;;;8.35;;
32295;SDS011;18781;51.550;5.418;2023-07-31T01:00:49;27.77;;;7.72;;
32295;SDS011;18781;51.550;5.418;2023-07-31T01:03:15;26.08;;;8.18;;
32295;SDS011;18781;51.550;5.418;2023-07-31T01:08:18;23.70;;;7.63;;
32295;SDS011;18781;51.550;5.418;2023-07-31T01:10:48;27.50;;;7.70;;
32295;SDS011;18781;51.550;5.418;2023-07-31T01:13:17;26.05;;;7.80;;
32295;SDS011;18781;51.550;5.418;2023-07-31T01:15:43;23.65;;;8.05;;
32295;SDS011;18781;51.550;5.418;2023-07-31T01:18:09;27.05;;;7.72;;
32295;SDS011;18781;51.550;5.418;2023-07-31T01:20:34;29.70;;;8.07;;
32295;SDS011;18781;51.550;5.418;2023-07-31T01:23:08;26.20;;;7.82;;
32295;SDS011;18781;51.550;5.418;2023-07-31T01:25:54;25.52;;;6.90;;
32295;SDS011;18781;51.550;5.418;2023-07-31T01:28:29;25.02;;;7.97;;
32295;SDS011;18781;51.550;5.418;2023-07-31T01:30:58;25.30;;;7.63;;
32295;SDS011;18781;51.550;5.418;2023-07-31T01:35:53;19.80;;;7.35;;
32295;SDS011;18781;51.550;5.418;2023-07-31T01:38:22;28.90;;;7.65;;
32295;SDS011;18781;51.550;5.418;2023-07-31T01:40:51;32.47;;;7.78;;
32295;SDS011;18781;51.550;5.418;2023-07-31T01:43:18;24.27;;;7.82;;
32295;SDS011;18781;51.550;5.418;2023-07-31T01:45:44;24.33;;;6.95;;
32295;SDS011;18781;51.550;5.418;2023-07-31T01:48:09;26.23;;;7.88;;
32295;SDS011;18781;51.550;5.418;2023-07-31T01:50:35;31.55;;;7.85;;
32295;SDS011;18781;51.550;5.418;2023-07-31T01:53:00;28.10;;;7.93;;
32295;SDS011;18781;51.550;5.418;2023-07-31T01:55:26;22.35;;;7.32;;
32295;SDS011;18781;51.550;5.418;2023-07-31T01:57:51;30.00;;;7.82;;
32295;SDS011;18781;51.550;5.418;2023-07-31T02:00:18;25.92;;;7.38;;
32295;SDS011;18781;51.550;5.418;2023-07-31T02:02:43;28.95;;;8.48;;
32295;SDS011;18781;51.550;5.418;2023-07-31T02:05:09;28.08;;;7.95;;
32295;SDS011;18781;51.550;5.418;2023-07-31T02:07:34;25.20;;;8.02;;
32295;SDS011;18781;51.550;5.418;2023-07-31T02:10:00;29.95;;;8.85;;
32295;SDS011;18781;51.550;5.418;2023-07-31T02:12:26;29.85;;;8.80;;
32295;SDS011;18781;51.550;5.418;2023-07-31T02:14:51;32.15;;;9.07;;
32295;SDS011;18781;51.550;5.418;2023-07-31T02:17:17;29.13;;;8.38;;
32295;SDS011;18781;51.550;5.418;2023-07-31T02:19:42;28.75;;;7.57;;
32295;SDS011;18781;51.550;5.418;2023-07-31T02:22:08;25.33;;;8.27;;
32295;SDS011;18781;51.550;5.418;2023-07-31T02:24:33;28.98;;;8.52;;
32295;SDS011;18781;51.550;5.418;2023-07-31T02:26:59;26.45;;;7.88;;
32295;SDS011;18781;51.550;5.418;2023-07-31T02:29:24;31.45;;;8.07;;
32295;SDS011;18781;51.550;5.418;2023-07-31T02:31:50;36.45;;;8.77;;
32295;SDS011;18781;51.550;5.418;2023-07-31T02:34:16;20.63;;;8.23;;
32295;SDS011;18781;51.550;5.418;2023-07-31T02:36:41;24.90;;;7.90;;
32295;SDS011;18781;51.550;5.418;2023-07-31T02:39:07;21.88;;;8.15;;
32295;SDS011;18781;51.550;5.418;2023-07-31T02:41:32;30.08;;;8.45;;
32295;SDS011;18781;51.550;5.418;2023-07-31T02:43:58;24.65;;;8.85;;
32295;SDS011;18781;51.550;5.418;2023-07-31T02:46:23;28.58;;;7.93;;
32295;SDS011;18781;51.550;5.418;2023-07-31T02:48:50;23.27;;;8.77;;
32295;SDS011;18781;51.550;5.418;2023-07-31T02:51:16;25.83;;;8.73;;
32295;SDS011;18781;51.550;5.418;2023-07-31T02:53:41;27.55;;;8.50;;
32295;SDS011;18781;51.550;5.418;2023-07-31T02:56:07;29.17;;;9.00;;
32295;SDS011;18781;51.550;5.418;2023-07-31T02:58:33;26.17;;;9.38;;
32295;SDS011;18781;51.550;5.418;2023-07-31T03:00:58;30.48;;;8.85;;
32295;SDS011;18781;51.550;5.418;2023-07-31T03:03:24;28.20;;;8.27;;
32295;SDS011;18781;51.550;5.418;2023-07-31T03:05:49;26.70;;;8.15;;
32295;SDS011;18781;51.550;5.418;2023-07-31T03:08:15;27.48;;;8.52;;
32295;SDS011;18781;51.550;5.418;2023-07-31T03:10:41;26.45;;;7.68;;
32295;SDS011;18781;51.550;5.418;2023-07-31T03:13:06;26.92;;;8.60;;
32295;SDS011;18781;51.550;5.418;2023-07-31T03:15:32;28.90;;;8.88;;
32295;SDS011;18781;51.550;5.418;2023-07-31T03:17:58;26.98;;;8.30;;
32295;SDS011;18781;51.550;5.418;2023-07-31T03:20:23;22.10;;;8.25;;
32295;SDS011;18781;51.550;5.418;2023-07-31T03:22:49;26.95;;;7.75;;
32295;SDS011;18781;51.550;5.418;2023-07-31T03:25:14;26.38;;;8.20;;
32295;SDS011;18781;51.550;5.418;2023-07-31T03:27:40;31.45;;;8.55;;
32295;SDS011;18781;51.550;5.418;2023-07-31T03:30:05;25.52;;;7.45;;
32295;SDS011;18781;51.550;5.418;2023-07-31T03:32:31;29.48;;;8.60;;
32295;SDS011;18781;51.550;5.418;2023-07-31T03:34:57;25.25;;;7.70;;
32295;SDS011;18781;51.550;5.418;2023-07-31T03:37:23;37.50;;;8.30;;
32295;SDS011;18781;51.550;5.418;2023-07-31T03:39:48;33.75;;;8.30;;
32295;SDS011;18781;51.550;5.418;2023-07-31T03:42:14;27.13;;;8.05;;
32295;SDS011;18781;51.550;5.418;2023-07-31T03:44:40;20.50;;;8.05;;
32295;SDS011;18781;51.550;5.418;2023-07-31T03:47:05;23.00;;;7.63;;
32295;SDS011;18781;51.550;5.418;2023-07-31T03:49:31;30.08;;;8.18;;
32295;SDS011;18781;51.550;5.418;2023-07-31T03:51:56;24.50;;;8.00;;
32295;SDS011;18781;51.550;5.418;2023-07-31T03:54:22;20.77;;;7.22;;
32295;SDS011;18781;51.550;5.418;2023-07-31T03:56:47;30.08;;;7.93;;
32295;SDS011;18781;51.550;5.418;2023-07-31T03:59:13;23.70;;;8.52;;
32295;SDS011;18781;51.550;5.418;2023-07-31T04:01:38;30.17;;;7.85;;
32295;SDS011;18781;51.550;5.418;2023-07-31T04:04:04;28.23;;;7.22;;
32295;SDS011;18781;51.550;5.418;2023-07-31T04:06:30;26.48;;;7.63;;
32295;SDS011;18781;51.550;5.418;2023-07-31T04:08:55;27.55;;;7.80;;
32295;SDS011;18781;51.550;5.418;2023-07-31T04:11:21;33.40;;;7.78;;
32295;SDS011;18781;51.550;5.418;2023-07-31T04:13:47;25.08;;;7.20;;
32295;SDS011;18781;51.550;5.418;2023-07-31T04:16:12;26.85;;;7.35;;
32295;SDS011;18781;51.550;5.418;2023-07-31T04:18:38;28.45;;;7.80;;
32295;SDS011;18781;51.550;5.418;2023-07-31T04:21:04;27.92;;;7.50;;
32295;SDS011;18781;51.550;5.418;2023-07-31T04:23:29;24.02;;;8.30;;
32295;SDS011;18781;51.550;5.418;2023-07-31T04:25:55;24.00;;;7.63;;
32295;SDS011;18781;51.550;5.418;2023-07-31T04:28:21;26.45;;;7.75;;
32295;SDS011;18781;51.550;5.418;2023-07-31T04:30:46;23.23;;;7.15;;
32295;SDS011;18781;51.550;5.418;2023-07-31T04:33:12;32.30;;;7.47;;
32295;SDS011;18781;51.550;5.418;2023-07-31T04:35:38;24.67;;;7.57;;
32295;SDS011;18781;51.550;5.418;2023-07-31T04:38:03;25.30;;;7.55;;
32295;SDS011;18781;51.550;5.418;2023-07-31T04:40:29;27.15;;;7.90;;
32295;SDS011;18781;51.550;5.418;2023-07-31T04:42:54;21.05;;;7.10;;
32295;SDS011;18781;51.550;5.418;2023-07-31T04:45:20;23.08;;;6.95;;
32295;SDS011;18781;51.550;5.418;2023-07-31T04:47:46;26.23;;;6.68;;
32295;SDS011;18781;51.550;5.418;2023-07-31T04:50:11;20.45;;;7.22;;
32295;SDS011;18781;51.550;5.418;2023-07-31T04:52:37;17.75;;;6.53;;
32295;SDS011;18781;51.550;5.418;2023-07-31T04:55:02;30.33;;;7.30;;
32295;SDS011;18781;51.550;5.418;2023-07-31T04:57:28;23.73;;;7.20;;
32295;SDS011;18781;51.550;5.418;2023-07-31T04:59:54;23.70;;;6.82;;
32295;SDS011;18781;51.550;5.418;2023-07-31T05:02:19;29.80;;;7.35;;
32295;SDS011;18781;51.550;5.418;2023-07-31T05:04:45;22.23;;;7.53;;
32295;SDS011;18781;51.550;5.418;2023-07-31T05:07:11;25.92;;;7.65;;
32295;SDS011;18781;51.550;5.418;2023-07-31T05:09:36;24.38;;;7.57;;
32295;SDS011;18781;51.550;5.418;2023-07-31T05:12:02;19.23;;;6.68;;
32295;SDS011;18781;51.550;5.418;2023-07-31T05:14:29;22.67;;;8.00;;
32295;SDS011;18781;51.550;5.418;2023-07-31T05:16:54;23.35;;;7.47;;
32295;SDS011;18781;51.550;5.418;2023-07-31T05:19:20;22.00;;;7.70;;
32295;SDS011;18781;51.550;5.418;2023-07-31T05:21:46;26.58;;;7.07;;
32295;SDS011;18781;51.550;5.418;2023-07-31T05:24:11;21.02;;;6.85;;
32295;SDS011;18781;51.550;5.418;2023-07-31T05:26:37;19.17;;;7.85;;
32295;SDS011;18781;51.550;5.418;2023-07-31T05:29:02;23.13;;;7.15;;
32295;SDS011;18781;51.550;5.418;2023-07-31T05:31:28;17.73;;;7.68;;
32295;SDS011;18781;51.550;5.418;2023-07-31T05:33:54;24.25;;;7.68;;
32295;SDS011;18781;51.550;5.418;2023-07-31T05:36:19;22.05;;;7.07;;
32295;SDS011;18781;51.550;5.418;2023-07-31T05:38:45;19.70;;;6.45;;
32295;SDS011;18781;51.550;5.418;2023-07-31T05:41:11;18.13;;;6.47;;
32295;SDS011;18781;51.550;5.418;2023-07-31T05:43:37;17.05;;;5.57;;
32295;SDS011;18781;51.550;5.418;2023-07-31T05:46:03;15.13;;;5.88;;
32295;SDS011;18781;51.550;5.418;2023-07-31T05:48:28;14.68;;;6.05;;
32295;SDS011;18781;51.550;5.418;2023-07-31T05:50:54;14.07;;;5.47;;
32295;SDS011;18781;51.550;5.418;2023-07-31T05:53:20;11.30;;;5.13;;
32295;SDS011;18781;51.550;5.418;2023-07-31T05:55:45;11.68;;;5.55;;
32295;SDS011;18781;51.550;5.418;2023-07-31T05:58:11;10.02;;;4.45;;
32295;SDS011;18781;51.550;5.418;2023-07-31T06:00:37;10.68;;;4.63;;
32295;SDS011;18781;51.550;5.418;2023-07-31T06:03:02;10.55;;;3.95;;
32295;SDS011;18781;51.550;5.418;2023-07-31T06:05:28;9.07;;;4.35;;
32295;SDS011;18781;51.550;5.418;2023-07-31T06:07:55;10.55;;;4.38;;
32295;SDS011;18781;51.550;5.418;2023-07-31T06:10:20;10.07;;;3.70;;
32295;SDS011;18781;51.550;5.418;2023-07-31T06:12:46;5.40;;;3.60;;
32295;SDS011;18781;51.550;5.418;2023-07-31T06:15:12;6.60;;;3.47;;
32295;SDS011;18781;51.550;5.418;2023-07-31T06:17:37;6.13;;;3.40;;
32295;SDS011;18781;51.550;5.418;2023-07-31T06:20:03;7.97;;;4.00;;
32295;SDS011;18781;51.550;5.418;2023-07-31T06:22:32;8.15;;;3.75;;
32295;SDS011;18781;51.550;5.418;2023-07-31T06:24:57;4.80;;;3.30;;
32295;SDS011;18781;51.550;5.418;2023-07-31T06:27:23;6.07;;;3.40;;
32295;SDS011;18781;51.550;5.418;2023-07-31T06:29:49;4.78;;;3.30;;
32295;SDS011;18781;51.550;5.418;2023-07-31T06:32:15;5.18;;;3.28;;
32295;SDS011;18781;51.550;5.418;2023-07-31T06:34:40;5.43;;;3.80;;
32295;SDS011;18781;51.550;5.418;2023-07-31T06:37:06;6.07;;;3.45;;
32295;SDS011;18781;51.550;5.418;2023-07-31T06:39:31;7.32;;;3.53;;
32295;SDS011;18781;51.550;5.418;2023-07-31T06:41:57;7.65;;;3.78;;
32295;SDS011;18781;51.550;5.418;2023-07-31T06:44:23;5.22;;;4.10;;
32295;SDS011;18781;51.550;5.418;2023-07-31T06:46:48;7.65;;;3.97;;
32295;SDS011;18781;51.550;5.418;2023-07-31T06:49:14;7.88;;;4.25;;
32295;SDS011;18781;51.550;5.418;2023-07-31T06:51:42;6.60;;;4.17;;
32295;SDS011;18781;51.550;5.418;2023-07-31T06:54:09;10.30;;;4.55;;
32295;SDS011;18781;51.550;5.418;2023-07-31T06:56:34;7.60;;;4.07;;
32295;SDS011;18781;51.550;5.418;2023-07-31T06:59:00;6.85;;;4.07;;
32295;SDS011;18781;51.550;5.418;2023-07-31T07:01:25;7.05;;;4.43;;
32295;SDS011;18781;51.550;5.418;2023-07-31T07:03:52;6.80;;;4.28;;
32295;SDS011;18781;51.550;5.418;2023-07-31T07:06:18;7.35;;;4.07;;
32295;SDS011;18781;51.550;5.418;2023-07-31T07:08:44;6.32;;;3.78;;
32295;SDS011;18781;51.550;5.418;2023-07-31T07:11:09;6.82;;;3.95;;
32295;SDS011;18781;51.550;5.418;2023-07-31T07:13:35;7.97;;;3.70;;
32295;SDS011;18781;51.550;5.418;2023-07-31T07:16:00;6.30;;;3.45;;
32295;SDS011;18781;51.550;5.418;2023-07-31T07:18:26;5.88;;;3.20;;
32295;SDS011;18781;51.550;5.418;2023-07-31T07:20:52;5.63;;;3.22;;
32295;SDS011;18781;51.550;5.418;2023-07-31T07:23:19;10.02;;;3.53;;
32295;SDS011;18781;51.550;5.418;2023-07-31T07:25:45;7.22;;;3.53;;
32295;SDS011;18781;51.550;5.418;2023-07-31T07:28:12;5.63;;;3.75;;
32295;SDS011;18781;51.550;5.418;2023-07-31T07:30:38;8.75;;;3.55;;
32295;SDS011;18781;51.550;5.418;2023-07-31T07:33:03;6.00;;;3.58;;
32295;SDS011;18781;51.550;5.418;2023-07-31T07:35:29;6.13;;;3.55;;
32295;SDS011;18781;51.550;5.418;2023-07-31T07:37:54;5.70;;;3.92;;
32295;SDS011;18781;51.550;5.418;2023-07-31T07:40:20;7.45;;;4.20;;
32295;SDS011;18781;51.550;5.418;2023-07-31T07:42:46;8.55;;;4.50;;
32295;SDS011;18781;51.550;5.418;2023-07-31T07:45:12;9.93;;;4.93;;
32295;SDS011;18781;51.550;5.418;2023-07-31T07:47:38;9.20;;;4.53;;
32295;SDS011;18781;51.550;5.418;2023-07-31T07:50:07;7.82;;;4.50;;
32295;SDS011;18781;51.550;5.418;2023-07-31T07:52:33;7.20;;;4.70;;
32295;SDS011;18781;51.550;5.418;2023-07-31T07:54:59;10.40;;;4.97;;
32295;SDS011;18781;51.550;5.418;2023-07-31T07:57:25;10.00;;;5.15;;
32295;SDS011;18781;51.550;5.418;2023-07-31T07:59:51;10.80;;;5.55;;
32295;SDS011;18781;51.550;5.418;2023-07-31T08:02:16;11.48;;;5.13;;
32295;SDS011;18781;51.550;5.418;2023-07-31T08:04:42;10.13;;;5.18;;
32295;SDS011;18781;51.550;5.418;2023-07-31T08:07:07;13.18;;;5.68;;
32295;SDS011;18781;51.550;5.418;2023-07-31T08:09:35;11.80;;;5.35;;
32295;SDS011;18781;51.550;5.418;2023-07-31T08:12:01;12.50;;;5.38;;
32295;SDS011;18781;51.550;5.418;2023-07-31T08:14:28;11.90;;;6.07;;
32295;SDS011;18781;51.550;5.418;2023-07-31T08:16:53;9.80;;;5.60;;
32295;SDS011;18781;51.550;5.418;2023-07-31T08:19:19;10.95;;;5.78;;
32295;SDS011;18781;51.550;5.418;2023-07-31T08:21:45;10.80;;;5.63;;
32295;SDS011;18781;51.550;5.418;2023-07-31T08:24:10;13.10;;;5.85;;
32295;SDS011;18781;51.550;5.418;2023-07-31T08:26:36;10.13;;;5.18;;
32295;SDS011;18781;51.550;5.418;2023-07-31T08:29:01;10.98;;;5.15;;
32295;SDS011;18781;51.550;5.418;2023-07-31T08:31:27;10.98;;;5.28;;
32295;SDS011;18781;51.550;5.418;2023-07-31T08:33:54;13.65;;;5.47;;
32295;SDS011;18781;51.550;5.418;2023-07-31T08:36:19;8.88;;;5.18;;
32295;SDS011;18781;51.550;5.418;2023-07-31T08:38:45;10.43;;;5.32;;
32295;SDS011;18781;51.550;5.418;2023-07-31T08:41:11;10.38;;;5.43;;
32295;SDS011;18781;51.550;5.418;2023-07-31T08:43:38;11.02;;;5.20;;
32295;SDS011;18781;51.550;5.418;2023-07-31T08:46:04;14.55;;;6.00;;
32295;SDS011;18781;51.550;5.418;2023-07-31T08:48:31;13.13;;;6.28;;
32295;SDS011;18781;51.550;5.418;2023-07-31T08:50:58;9.38;;;6.22;;
32295;SDS011;18781;51.550;5.418;2023-07-31T08:53:23;11.18;;;6.75;;
32295;SDS011;18781;51.550;5.418;2023-07-31T08:55:50;9.95;;;5.57;;
32295;SDS011;18781;51.550;5.418;2023-07-31T09:00:45;12.02;;;6.07;;
32295;SDS011;18781;51.550;5.418;2023-07-31T09:05:38;13.43;;;6.47;;
32295;SDS011;18781;51.550;5.418;2023-07-31T09:08:09;13.05;;;6.72;;
32295;SDS011;18781;51.550;5.418;2023-07-31T09:10:39;15.75;;;6.70;;
32295;SDS011;18781;51.550;5.418;2023-07-31T09:13:09;15.52;;;6.82;;
32295;SDS011;18781;51.550;5.418;2023-07-31T09:15:35;17.45;;;7.07;;
32295;SDS011;18781;51.550;5.418;2023-07-31T09:18:02;18.40;;;6.88;;
32295;SDS011;18781;51.550;5.418;2023-07-31T09:20:29;17.40;;;7.10;;
32295;SDS011;18781;51.550;5.418;2023-07-31T09:22:54;17.63;;;6.63;;
32295;SDS011;18781;51.550;5.418;2023-07-31T09:25:24;13.80;;;6.70;;
32295;SDS011;18781;51.550;5.418;2023-07-31T09:27:57;12.13;;;6.45;;
32295;SDS011;18781;51.550;5.418;2023-07-31T09:30:25;15.98;;;6.53;;
32295;SDS011;18781;51.550;5.418;2023-07-31T09:32:51;14.70;;;6.50;;
32295;SDS011;18781;51.550;5.418;2023-07-31T09:35:32;15.73;;;7.15;;
32295;SDS011;18781;51.550;5.418;2023-07-31T09:38:00;13.50;;;6.75;;
32295;SDS011;18781;51.550;5.418;2023-07-31T09:45:27;14.52;;;6.65;;
32295;SDS011;18781;51.550;5.418;2023-07-31T09:47:53;12.60;;;6.90;;
32295;SDS011;18781;51.550;5.418;2023-07-31T09:50:20;17.95;;;6.68;;
32295;SDS011;18781;51.550;5.418;2023-07-31T09:52:48;15.85;;;7.05;;
32295;SDS011;18781;51.550;5.418;2023-07-31T09:55:14;15.18;;;6.78;;
32295;SDS011;18781;51.550;5.418;2023-07-31T09:57:40;11.02;;;6.22;;
32295;SDS011;18781;51.550;5.418;2023-07-31T10:00:07;15.70;;;6.88;;
32295;SDS011;18781;51.550;5.418;2023-07-31T10:02:34;16.48;;;6.32;;
32295;SDS011;18781;51.550;5.418;2023-07-31T10:05:02;13.75;;;6.28;;
32295;SDS011;18781;51.550;5.418;2023-07-31T10:07:30;14.75;;;6.32;;
32295;SDS011;18781;51.550;5.418;2023-07-31T10:09:59;15.02;;;6.35;;
32295;SDS011;18781;51.550;5.418;2023-07-31T10:12:26;10.23;;;5.40;;
32295;SDS011;18781;51.550;5.418;2023-07-31T10:14:55;10.88;;;6.15;;
32295;SDS011;18781;51.550;5.418;2023-07-31T10:17:21;15.50;;;5.72;;
32295;SDS011;18781;51.550;5.418;2023-07-31T10:19:48;14.27;;;5.97;;
32295;SDS011;18781;51.550;5.418;2023-07-31T10:22:18;10.90;;;5.55;;
32295;SDS011;18781;51.550;5.418;2023-07-31T10:24:45;10.90;;;5.63;;
32295;SDS011;18781;51.550;5.418;2023-07-31T10:27:11;11.20;;;5.13;;
32295;SDS011;18781;51.550;5.418;2023-07-31T10:29:37;12.20;;;5.25;;
32295;SDS011;18781;51.550;5.418;2023-07-31T10:32:05;11.50;;;5.32;;
32295;SDS011;18781;51.550;5.418;2023-07-31T10:34:35;12.15;;;5.50;;
32295;SDS011;18781;51.550;5.418;2023-07-31T10:40:02;10.85;;;4.82;;
32295;SDS011;18781;51.550;5.418;2023-07-31T10:42:32;11.43;;;5.32;;
32295;SDS011;18781;51.550;5.418;2023-07-31T10:45:01;12.57;;;5.15;;
32295;SDS011;18781;51.550;5.418;2023-07-31T10:47:31;12.27;;;5.13;;
32295;SDS011;18781;51.550;5.418;2023-07-31T10:50:19;10.38;;;5.15;;
32295;SDS011;18781;51.550;5.418;2023-07-31T10:52:49;12.25;;;4.68;;
32295;SDS011;18781;51.550;5.418;2023-07-31T10:55:29;9.90;;;4.88;;
32295;SDS011;18781;51.550;5.418;2023-07-31T10:58:12;8.30;;;5.05;;
32295;SDS011;18781;51.550;5.418;2023-07-31T11:00:40;8.82;;;5.20;;
32295;SDS011;18781;51.550;5.418;2023-07-31T11:03:13;10.25;;;5.38;;
32295;SDS011;18781;51.550;5.418;2023-07-31T11:05:40;9.80;;;5.03;;
32295;SDS011;18781;51.550;5.418;2023-07-31T11:08:13;13.52;;;5.75;;
32295;SDS011;18781;51.550;5.418;2023-07-31T11:10:44;8.35;;;5.13;;
32295;SDS011;18781;51.550;5.418;2023-07-31T11:13:11;13.02;;;5.88;;
32295;SDS011;18781;51.550;5.418;2023-07-31T11:15:37;10.80;;;5.63;;
32295;SDS011;18781;51.550;5.418;2023-07-31T11:18:03;9.52;;;5.43;;
32295;SDS011;18781;51.550;5.418;2023-07-31T11:20:30;10.93;;;5.70;;
32295;SDS011;18781;51.550;5.418;2023-07-31T11:23:03;11.98;;;5.68;;
32295;SDS011;18781;51.550;5.418;2023-07-31T11:25:31;14.45;;;5.97;;
32295;SDS011;18781;51.550;5.418;2023-07-31T11:28:01;11.18;;;5.25;;
32295;SDS011;18781;51.550;5.418;2023-07-31T11:30:31;10.77;;;5.43;;
32295;SDS011;18781;51.550;5.418;2023-07-31T11:32:56;9.75;;;4.85;;
32295;SDS011;18781;51.550;5.418;2023-07-31T11:35:22;10.43;;;5.22;;
32295;SDS011;18781;51.550;5.418;2023-07-31T11:37:48;14.57;;;6.40;;
32295;SDS011;18781;51.550;5.418;2023-07-31T11:40:14;14.00;;;6.10;;
32295;SDS011;18781;51.550;5.418;2023-07-31T11:42:39;12.20;;;5.43;;
32295;SDS011;18781;51.550;5.418;2023-07-31T11:45:06;12.10;;;5.57;;
32295;SDS011;18781;51.550;5.418;2023-07-31T11:47:33;12.85;;;5.43;;
32295;SDS011;18781;51.550;5.418;2023-07-31T11:50:02;9.18;;;4.68;;
32295;SDS011;18781;51.550;5.418;2023-07-31T11:52:33;7.07;;;4.53;;
32295;SDS011;18781;51.550;5.418;2023-07-31T11:55:10;8.13;;;3.67;;
32295;SDS011;18781;51.550;5.418;2023-07-31T11:57:37;7.93;;;3.90;;
32295;SDS011;18781;51.550;5.418;2023-07-31T12:00:05;9.60;;;4.67;;
32295;SDS011;18781;51.550;5.418;2023-07-31T12:02:33;10.13;;;4.60;;
32295;SDS011;18781;51.550;5.418;2023-07-31T12:04:59;10.13;;;4.60;;
32295;SDS011;18781;51.550;5.418;2023-07-31T12:07:25;9.05;;;4.03;;
32295;SDS011;18781;51.550;5.418;2023-07-31T12:09:54;10.55;;;4.28;;
32295;SDS011;18781;51.550;5.418;2023-07-31T12:14:47;11.27;;;4.72;;
32295;SDS011;18781;51.550;5.418;2023-07-31T12:17:13;7.15;;;4.22;;
32295;SDS011;18781;51.550;5.418;2023-07-31T12:19:40;9.18;;;4.80;;
32295;SDS011;18781;51.550;5.418;2023-07-31T12:22:12;8.50;;;4.85;;
32295;SDS011;18781;51.550;5.418;2023-07-31T12:24:42;14.95;;;5.40;;
32295;SDS011;18781;51.550;5.418;2023-07-31T12:27:12;8.45;;;4.97;;
32295;SDS011;18781;51.550;5.418;2023-07-31T12:29:38;13.43;;;5.65;;
32295;SDS011;18781;51.550;5.418;2023-07-31T12:32:18;10.95;;;5.32;;
32295;SDS011;18781;51.550;5.418;2023-07-31T12:34:54;8.15;;;5.22;;
32295;SDS011;18781;51.550;5.418;2023-07-31T12:37:22;9.55;;;5.50;;
32295;SDS011;18781;51.550;5.418;2023-07-31T12:39:48;15.32;;;5.85;;
32295;SDS011;18781;51.550;5.418;2023-07-31T12:42:13;10.75;;;5.55;;
32295;SDS011;18781;51.550;5.418;2023-07-31T12:44:41;12.25;;;6.60;;
32295;SDS011;18781;51.550;5.418;2023-07-31T12:47:07;11.18;;;6.13;;
32295;SDS011;18781;51.550;5.418;2023-07-31T12:49:33;14.57;;;7.00;;
32295;SDS011;18781;51.550;5.418;2023-07-31T12:51:58;10.88;;;5.80;;
32295;SDS011;18781;51.550;5.418;2023-07-31T12:54:24;12.35;;;6.65;;
32295;SDS011;18781;51.550;5.418;2023-07-31T12:56:49;13.68;;;6.68;;
32295;SDS011;18781;51.550;5.418;2023-07-31T12:59:15;15.75;;;7.22;;
32295;SDS011;18781;51.550;5.418;2023-07-31T13:01:40;12.77;;;7.22;;
32295;SDS011;18781;51.550;5.418;2023-07-31T13:04:06;11.98;;;7.25;;
32295;SDS011;18781;51.550;5.418;2023-07-31T13:06:33;15.43;;;7.90;;
32295;SDS011;18781;51.550;5.418;2023-07-31T13:08:59;16.05;;;8.30;;
32295;SDS011;18781;51.550;5.418;2023-07-31T13:11:24;21.73;;;7.60;;
32295;SDS011;18781;51.550;5.418;2023-07-31T13:13:50;17.90;;;7.70;;
32295;SDS011;18781;51.550;5.418;2023-07-31T13:16:15;18.63;;;7.63;;
32295;SDS011;18781;51.550;5.418;2023-07-31T13:18:41;19.15;;;8.00;;
32295;SDS011;18781;51.550;5.418;2023-07-31T13:21:06;14.88;;;7.40;;
32295;SDS011;18781;51.550;5.418;2023-07-31T13:23:32;14.93;;;7.35;;
32295;SDS011;18781;51.550;5.418;2023-07-31T13:25:57;19.40;;;8.05;;
32295;SDS011;18781;51.550;5.418;2023-07-31T13:28:23;15.20;;;7.47;;
32295;SDS011;18781;51.550;5.418;2023-07-31T13:30:49;18.10;;;7.47;;
32295;SDS011;18781;51.550;5.418;2023-07-31T13:33:14;16.35;;;7.18;;
32295;SDS011;18781;51.550;5.418;2023-07-31T13:35:40;15.15;;;6.72;;
32295;SDS011;18781;51.550;5.418;2023-07-31T13:38:05;18.88;;;7.30;;
32295;SDS011;18781;51.550;5.418;2023-07-31T13:40:31;14.90;;;6.75;;
32295;SDS011;18781;51.550;5.418;2023-07-31T13:42:57;17.10;;;7.00;;
32295;SDS011;18781;51.550;5.418;2023-07-31T13:45:23;14.82;;;7.65;;
32295;SDS011;18781;51.550;5.418;2023-07-31T13:47:49;14.82;;;7.07;;
32295;SDS011;18781;51.550;5.418;2023-07-31T13:50:16;18.13;;;7.18;;
32295;SDS011;18781;51.550;5.418;2023-07-31T13:52:44;15.35;;;7.80;;
32295;SDS011;18781;51.550;5.418;2023-07-31T13:55:09;17.55;;;7.65;;
32295;SDS011;18781;51.550;5.418;2023-07-31T13:57:35;18.42;;;7.38;;
32295;SDS011;18781;51.550;5.418;2023-07-31T14:00:01;15.20;;;7.70;;
32295;SDS011;18781;51.550;5.418;2023-07-31T14:02:27;17.85;;;8.20;;
32295;SDS011;18781;51.550;5.418;2023-07-31T14:04:52;18.63;;;8.65;;
32295;SDS011;18781;51.550;5.418;2023-07-31T14:07:18;19.20;;;8.48;;
32295;SDS011;18781;51.550;5.418;2023-07-31T14:09:44;17.30;;;8.60;;
32295;SDS011;18781;51.550;5.418;2023-07-31T14:12:09;14.13;;;7.97;;
32295;SDS011;18781;51.550;5.418;2023-07-31T14:14:35;16.27;;;8.40;;
32295;SDS011;18781;51.550;5.418;2023-07-31T14:17:01;15.88;;;7.85;;
32295;SDS011;18781;51.550;5.418;2023-07-31T14:19:26;24.17;;;9.00;;
32295;SDS011;18781;51.550;5.418;2023-07-31T14:21:52;16.75;;;8.35;;
32295;SDS011;18781;51.550;5.418;2023-07-31T14:24:17;14.15;;;7.72;;
32295;SDS011;18781;51.550;5.418;2023-07-31T14:26:43;18.67;;;8.13;;
32295;SDS011;18781;51.550;5.418;2023-07-31T14:29:08;16.55;;;8.52;;
32295;SDS011;18781;51.550;5.418;2023-07-31T14:31:34;13.07;;;7.97;;
32295;SDS011;18781;51.550;5.418;2023-07-31T14:34:00;15.63;;;7.20;;
32295;SDS011;18781;51.550;5.418;2023-07-31T14:36:26;12.98;;;7.75;;
32295;SDS011;18781;51.550;5.418;2023-07-31T14:38:51;17.13;;;7.20;;
32295;SDS011;18781;51.550;5.418;2023-07-31T14:41:17;15.73;;;7.72;;
32295;SDS011;18781;51.550;5.418;2023-07-31T14:43:42;14.95;;;7.35;;
32295;SDS011;18781;51.550;5.418;2023-07-31T14:46:08;14.68;;;7.90;;
32295;SDS011;18781;51.550;5.418;2023-07-31T14:48:33;17.60;;;7.90;;
32295;SDS011;18781;51.550;5.418;2023-07-31T14:50:59;18.75;;;7.32;;